Time;durP1;ratioP1;P1;durP2;ratioP2;P2;SDS_P1;SDS_P2;PMS_P1;PMS_P2;Temp;Humidity;BMP_temperature;BMP_pressure;BME280_temperature;BME280_humidity;BME280_pressure;Samples;Min_cycle;Max_cycle;Signal;HPM_P1;HPM_P2
2021/03/21 11:47:48;;;;;;;6.53;3.33;;;;;;;4.04;47.90;99461.97;1773493;80;28159;-74
2021/03/21 11:50:25;;;;;;;7.47;3.50;;;;;;;4.16;45.21;99477.75;1712233;82;21259;-77
2021/03/21 11:52:53;;;;;;;7.45;3.90;;;;;;;4.14;44.91;99471.74;1700415;82;21151;-83
2021/03/21 11:55:28;;;;;;;6.55;3.60;;;;;;;4.13;45.89;99466.02;1659978;83;21173;-87
2021/03/21 11:58:22;;;;;;;6.75;3.00;;;;;;;4.19;45.86;99463.77;1737809;82;21135;-85
2021/03/21 12:01:02;;;;;;;8.28;3.83;;;;;;;4.19;46.03;99471.06;1735896;82;21152;-82
2021/03/21 12:03:47;;;;;;;6.28;3.40;;;;;;;4.06;46.87;99461.73;1734448;82;21139;-87
2021/03/21 12:06:32;;;;;;;8.15;3.30;;;;;;;3.78;47.36;99463.59;1735107;82;21127;-84
2021/03/21 12:09:30;;;;;;;8.35;3.98;;;;;;;3.50;47.98;99465.43;1722904;82;21087;-84
2021/03/21 12:12:01;;;;;;;10.30;3.55;;;;;;;3.40;47.78;99473.73;1714871;83;21203;-84
2021/03/21 12:14:40;;;;;;;9.58;3.40;;;;;;;3.48;47.57;99466.70;1707942;82;21118;-79
2021/03/21 12:17:30;;;;;;;8.60;4.30;;;;;;;3.56;46.69;99475.37;1707668;83;21170;-74
2021/03/21 12:20:27;;;;;;;6.90;3.25;;;;;;;3.62;47.93;99458.75;1727044;82;21256;-77
2021/03/21 12:22:55;;;;;;;13.10;4.80;;;;;;;3.66;46.84;99460.81;1715386;82;21133;-73
2021/03/21 12:25:32;;;;;;;9.73;4.17;;;;;;;3.65;46.60;99455.09;1742044;82;21175;-73
2021/03/21 12:28:18;;;;;;;9.53;4.12;;;;;;;3.61;46.82;99453.05;1727716;81;21170;-75
2021/03/21 12:30:52;;;;;;;7.05;3.77;;;;;;;3.59;46.86;99456.52;1729017;82;21138;-73
2021/03/21 12:33:34;;;;;;;5.83;3.27;;;;;;;3.71;48.26;99444.73;1720682;82;21131;-77
2021/03/21 12:36:20;;;;;;;7.37;3.35;;;;;;;3.82;46.84;99440.42;1735023;82;21177;-85
2021/03/21 12:38:54;;;;;;;7.85;4.12;;;;;;;3.82;46.98;99437.20;1709654;82;21260;-72
2021/03/21 12:41:34;;;;;;;10.78;4.08;;;;;;;3.91;48.16;99430.98;1714911;82;21153;-72
2021/03/21 12:44:22;;;;;;;7.67;3.75;;;;;;;4.02;47.17;99438.36;1715283;82;21173;-78
2021/03/21 12:47:00;;;;;;;8.45;3.25;;;;;;;4.06;45.29;99436.00;1703408;83;21278;-77
2021/03/21 12:49:35;;;;;;;;;;;;;;;3.99;45.26;99433.91;1713869;83;21134;-75
2021/03/21 12:52:14;;;;;;;6.25;3.45;;;;;;;3.93;46.82;99438.34;1743204;81;20548;-77
2021/03/21 12:54:44;;;;;;;7.78;3.77;;;;;;;3.82;45.97;99438.55;1717629;83;21151;-80
2021/03/21 12:57:13;;;;;;;9.20;3.67;;;;;;;3.75;46.42;99436.97;1718494;82;21182;-77
2021/03/21 12:59:51;;;;;;;12.53;4.03;;;;;;;3.64;46.18;99437.18;1732109;81;21153;-73
2021/03/21 13:02:34;;;;;;;8.13;3.90;;;;;;;3.57;47.07;99435.08;1745276;81;21689;-82
2021/03/21 13:05:08;;;;;;;8.08;3.77;;;;;;;3.61;46.94;99427.35;1714886;81;21163;-76
2021/03/21 13:07:36;;;;;;;8.03;4.23;;;;;;;3.66;47.10;99424.28;1707625;81;21147;-82
2021/03/21 13:10:06;;;;;;;7.95;3.92;;;;;;;3.70;47.31;99423.29;1734540;81;21211;-79
2021/03/21 13:12:34;;;;;;;10.08;3.40;;;;;;;3.76;45.95;99417.82;1717717;83;21282;-81
2021/03/21 13:15:05;;;;;;;7.25;3.17;;;;;;;3.84;44.36;99412.64;1698888;82;21144;-81
2021/03/21 13:17:33;;;;;;;7.42;3.75;;;;;;;3.92;44.96;99405.57;1711447;83;21170;-81
2021/03/21 13:20:07;;;;;;;8.50;3.90;;;;;;;3.97;44.08;99411.13;1727802;81;21724;-80
2021/03/21 13:22:36;;;;;;;8.70;4.40;;;;;;;4.05;44.11;99399.17;1729759;82;21240;-83
2021/03/21 13:25:07;;;;;;;7.95;4.08;;;;;;;4.08;46.13;99388.69;1727212;82;21579;-81
2021/03/21 13:27:35;;;;;;;8.38;3.60;;;;;;;4.15;45.24;99392.13;1700040;83;21633;-80
2021/03/21 13:30:07;;;;;;;7.03;3.52;;;;;;;4.20;45.28;99392.83;1726918;81;21604;-82
2021/03/21 13:32:36;;;;;;;8.18;3.42;;;;;;;4.16;42.85;99410.05;1727196;82;21164;-82
2021/03/21 13:35:06;;;;;;;13.20;4.28;;;;;;;4.06;44.35;99384.56;1714096;82;21230;-79
2021/03/21 13:37:33;;;;;;;6.78;3.70;;;;;;;3.99;44.05;99389.23;1712069;82;21157;-82
2021/03/21 13:40:04;;;;;;;9.15;3.52;;;;;;;3.99;45.48;99381.95;1731748;82;21575;-83
2021/03/21 13:42:31;;;;;;;5.65;3.30;;;;;;;4.03;45.23;99381.78;1715581;82;21134;-84
2021/03/21 13:45:00;;;;;;;7.03;3.58;;;;;;;3.89;43.91;99376.23;1714972;82;21715;-82
2021/03/21 13:47:31;;;;;;;5.83;3.37;;;;;;;3.79;45.58;99378.66;1723415;81;21179;-77
2021/03/21 13:49:59;;;;;;;6.70;3.62;;;;;;;3.62;44.91;99361.34;1724036;82;21119;-80
2021/03/21 13:52:28;;;;;;;8.05;3.75;;;;;;;3.50;45.50;99355.03;1708401;82;21262;-75
2021/03/21 13:54:56;;;;;;;6.75;3.30;;;;;;;3.37;45.71;99359.22;1742029;81;21151;-77
2021/03/21 13:57:26;;;;;;;8.30;3.67;;;;;;;3.29;45.56;99356.84;1716618;81;21236;-81
2021/03/21 13:59:53;;;;;;;9.00;3.70;;;;;;;3.25;46.84;99358.31;1691580;82;21113;-80
2021/03/21 14:02:21;;;;;;;15.38;8.15;;;;;;;3.29;47.00;99359.54;1715089;82;21130;-82
2021/03/21 14:04:52;;;;;;;7.65;3.85;;;;;;;3.77;46.00;99357.20;1723682;82;21108;-79
2021/03/21 14:07:22;;;;;;;7.60;4.10;;;;;;;4.31;44.59;99359.01;1714956;82;21145;-82
2021/03/21 14:09:51;;;;;;;9.88;3.42;;;;;;;4.09;44.90;99351.09;1741311;81;21227;-79
2021/03/21 14:12:20;;;;;;;7.35;3.70;;;;;;;3.84;44.96;99357.14;1713590;81;21717;-80
2021/03/21 14:14:49;;;;;;;8.03;3.72;;;;;;;3.63;45.26;99360.30;1739626;81;21300;-81
2021/03/21 14:17:17;;;;;;;9.08;3.55;;;;;;;3.44;45.54;99362.16;1736871;81;21147;-77
2021/03/21 14:19:45;;;;;;;16.75;3.85;;;;;;;3.32;44.94;99359.91;1721929;81;21213;-84
2021/03/21 14:22:14;;;;;;;9.00;4.45;;;;;;;3.23;47.09;99353.66;1720699;83;21141;-80
2021/03/21 14:24:42;;;;;;;9.53;3.67;;;;;;;3.18;45.87;99347.58;1707037;82;21240;-82
2021/03/21 14:27:10;;;;;;;10.35;4.90;;;;;;;3.52;44.91;99342.10;1686706;83;21264;-75
2021/03/21 14:29:40;;;;;;;9.58;4.80;;;;;;;4.16;46.02;99335.58;1693918;83;21587;-77
2021/03/21 14:32:08;;;;;;;12.05;5.78;;;;;;;4.91;43.56;99337.22;1706164;83;21106;-72
2021/03/21 14:34:37;;;;;;;8.03;4.28;;;;;;;5.44;42.71;99327.08;1708219;82;21131;-79
2021/03/21 14:37:06;;;;;;;13.40;4.47;;;;;;;5.33;42.76;99321.67;1707741;84;21217;-80
2021/03/21 14:39:34;;;;;;;12.10;5.37;;;;;;;5.07;42.70;99327.05;1708452;82;21132;-81
2021/03/21 14:42:02;;;;;;;11.63;6.20;;;;;;;4.66;44.08;99329.30;1716488;82;21158;-78
2021/03/21 14:46:00;;;;;;;13.88;5.90;;;;;;;4.27;45.98;99338.87;1793010;77;22175;-79
2021/03/21 14:48:29;;;;;;;10.82;5.47;;;;;;;4.05;47.09;99336.89;1744964;80;21154;-82
2021/03/21 14:50:57;;;;;;;11.08;4.08;;;;;;;3.85;47.05;99335.25;1743481;81;21141;-81
2021/03/21 14:53:27;;;;;;;;;;;;;;;3.76;48.13;99331.73;1730273;81;21213;-77
2021/03/21 14:55:55;;;;;;;11.22;5.45;;;;;;;3.68;47.16;99330.16;1749710;81;20260;-76
2021/03/21 14:58:27;;;;;;;8.68;5.00;;;;;;;3.50;47.22;99336.09;1748268;80;21281;-76
2021/03/21 15:00:58;;;;;;;10.98;5.03;;;;;;;3.41;47.56;99334.75;1747099;81;21621;-74
2021/03/21 15:03:26;;;;;;;8.50;4.20;;;;;;;3.42;47.66;99336.39;1738367;81;21161;-74
2021/03/21 15:05:56;;;;;;;9.08;4.37;;;;;;;3.34;47.07;99328.59;1762292;81;21129;-72
2021/03/21 15:08:30;;;;;;;11.83;5.20;;;;;;;3.24;47.58;99330.98;1745205;81;21144;-72
2021/03/21 15:10:58;;;;;;;9.90;5.20;;;;;;;3.12;48.30;99330.36;1755501;81;21169;-77
2021/03/21 15:13:26;;;;;;;;;;;;;;;3.04;48.10;99327.11;1741572;81;21164;-73
2021/03/21 15:15:55;;;;;;;8.60;4.77;;;;;;;2.97;48.79;99325.83;1755903;80;20207;-73
2021/03/21 15:18:25;;;;;;;11.08;4.85;;;;;;;2.86;49.25;99322.49;1751806;80;21637;-74
2021/03/21 15:20:58;;;;;;;9.20;4.50;;;;;;;2.83;50.01;99327.53;1746362;81;21199;-74
2021/03/21 15:23:29;;;;;;;9.10;4.17;;;;;;;2.79;49.66;99328.48;1740907;81;21650;-71
2021/03/21 15:25:58;;;;;;;11.03;4.90;;;;;;;2.74;50.62;99328.32;1746275;81;21132;-73
2021/03/21 15:28:35;;;;;;;11.67;5.00;;;;;;;2.69;50.26;99325.45;1695500;83;21152;-73
2021/03/21 15:30:58;;;;;;;10.50;4.77;;;;;;;2.67;51.39;99327.55;1690770;84;21581;-69
2021/03/21 15:33:26;;;;;;;10.65;5.25;;;;;;;2.65;52.02;99326.95;1697218;83;21179;-74
2021/03/21 15:35:54;;;;;;;9.55;5.35;;;;;;;2.63;50.94;99327.70;1682293;84;21241;-72
2021/03/21 15:38:22;;;;;;;10.70;6.22;;;;;;;2.60;51.33;99320.03;1694249;83;21152;-72
2021/03/21 15:40:50;;;;;;;14.00;5.45;;;;;;;2.58;51.65;99320.23;1696488;84;21216;-72
2021/03/21 15:43:18;;;;;;;13.30;5.12;;;;;;;2.54;51.17;99322.25;1692713;83;21204;-79
2021/03/21 15:45:46;;;;;;;12.05;6.05;;;;;;;2.50;51.62;99319.70;1702404;84;21626;-77
2021/03/21 15:48:14;;;;;;;11.05;6.00;;;;;;;2.44;51.93;99319.21;1695989;83;21227;-72
2021/03/21 15:50:42;;;;;;;10.23;5.67;;;;;;;2.40;52.57;99325.56;1702701;83;21235;-72
2021/03/21 15:53:13;;;;;;;;;;;;;;;2.32;51.95;99317.75;1675220;84;21417;-73
2021/03/21 15:55:41;;;;;;;13.80;5.50;;;;;;;2.27;51.94;99312.70;1683066;84;20172;-71
2021/03/21 15:58:09;;;;;;;20.12;5.55;;;;;;;2.24;52.33;99317.17;1677053;84;21140;-71
2021/03/21 16:00:39;;;;;;;13.88;5.78;;;;;;;2.22;53.19;99318.75;1686065;83;21132;-75
2021/03/21 16:03:12;;;;;;;12.13;5.53;;;;;;;2.20;52.85;99314.07;1718280;81;21134;-78
2021/03/21 16:05:40;;;;;;;11.10;5.93;;;;;;;2.17;52.70;99308.30;1716000;82;21180;-80
2021/03/21 16:08:10;;;;;;;15.80;6.13;;;;;;;2.17;53.07;99311.00;1727490;81;21183;-78
2021/03/21 16:10:38;;;;;;;15.43;6.30;;;;;;;2.16;52.96;99306.63;1684488;84;21286;-81
2021/03/21 16:13:09;;;;;;;11.90;5.90;;;;;;;2.16;53.51;99312.03;1689120;83;21722;-84
2021/03/21 16:15:39;;;;;;;12.60;6.03;;;;;;;2.14;52.88;99314.13;1691577;84;21600;-81
2021/03/21 16:18:09;;;;;;;12.80;6.53;;;;;;;2.11;53.67;99319.95;1675736;84;21200;-76
2021/03/21 16:20:37;;;;;;;13.77;6.60;;;;;;;2.07;53.21;99318.74;1677219;84;21273;-77
2021/03/21 16:23:06;;;;;;;16.37;6.70;;;;;;;2.04;54.76;99318.66;1702535;83;21206;-82
2021/03/21 16:25:35;;;;;;;17.00;7.27;;;;;;;2.03;54.64;99324.25;1692535;83;21217;-77
2021/03/21 16:28:06;;;;;;;15.07;7.27;;;;;;;2.02;53.52;99323.95;1717135;82;21686;-79
2021/03/21 16:30:36;;;;;;;13.20;6.77;;;;;;;2.01;53.62;99312.84;1718217;82;21176;-76
2021/03/21 16:33:06;;;;;;;14.87;6.40;;;;;;;2.01;54.46;99312.84;1690070;83;21717;-78
2021/03/21 16:35:36;;;;;;;12.77;6.50;;;;;;;2.00;55.40;99318.76;1713567;83;21196;-74
2021/03/21 16:38:05;;;;;;;14.43;6.70;;;;;;;1.97;54.20;99317.87;1693812;83;21283;-75
2021/03/21 16:40:39;;;;;;;15.88;7.10;;;;;;;1.94;54.60;99314.25;1678574;84;21650;-77
2021/03/21 16:43:08;;;;;;;13.37;7.10;;;;;;;1.96;55.01;99319.41;1678170;84;21684;-78
2021/03/21 16:45:38;;;;;;;13.67;6.80;;;;;;;1.94;54.31;99314.25;1682775;84;21165;-79
2021/03/21 16:48:07;;;;;;;15.07;8.00;;;;;;;1.93;54.16;99318.81;1676800;84;21643;-79
2021/03/21 16:50:36;;;;;;;15.77;7.83;;;;;;;1.92;54.77;99319.84;1697668;84;21279;-79
2021/03/21 16:53:05;;;;;;;19.40;7.97;;;;;;;1.91;54.58;99320.91;1685520;83;21176;-78
2021/03/21 16:55:33;;;;;;;21.55;8.45;;;;;;;1.90;55.55;99326.50;1683079;84;21191;-79
2021/03/21 16:58:03;;;;;;;21.37;8.87;;;;;;;1.90;56.55;99323.80;1676363;83;21153;-81
2021/03/21 17:00:32;;;;;;;17.92;8.75;;;;;;;1.88;55.36;99323.19;1691226;84;21636;-78
2021/03/21 17:03:01;;;;;;;26.00;11.00;;;;;;;1.87;55.71;99325.05;1685710;83;21203;-83
2021/03/21 17:05:30;;;;;;;31.23;12.27;;;;;;;1.86;55.79;99330.16;1690174;84;21168;-81
2021/03/21 17:07:58;;;;;;;30.62;12.88;;;;;;;1.87;55.47;99331.80;1688960;84;21289;-83
2021/03/21 17:10:30;;;;;;;34.85;13.78;;;;;;;1.87;55.69;99332.34;1684415;84;21156;-83
2021/03/21 17:12:58;;;;;;;33.70;14.43;;;;;;;1.85;55.45;99331.20;1689951;84;21212;-83
2021/03/21 17:15:30;;;;;;;34.97;14.20;;;;;;;1.86;55.62;99336.08;1693558;84;21163;-85
2021/03/21 17:17:59;;;;;;;30.47;13.37;;;;;;;1.86;56.11;99338.77;1686773;83;21165;-86
2021/03/21 17:20:31;;;;;;;28.47;12.98;;;;;;;1.85;55.73;99336.59;1687735;84;21524;-83
2021/03/21 17:22:59;;;;;;;32.13;11.60;;;;;;;1.86;56.08;99338.77;1682698;84;21405;-77
2021/03/21 17:25:30;;;;;;;26.70;9.85;;;;;;;1.85;57.14;99339.28;1682706;84;21157;-78
2021/03/21 17:27:59;;;;;;;16.10;8.47;;;;;;;1.86;57.13;99338.77;1689972;83;21227;-76
2021/03/21 17:30:31;;;;;;;27.45;8.35;;;;;;;1.84;57.08;99334.12;1687110;84;21146;-76
2021/03/21 17:32:59;;;;;;;16.87;8.23;;;;;;;1.83;57.26;99326.54;1688770;84;21173;-76
2021/03/21 17:35:27;;;;;;;14.75;7.92;;;;;;;1.80;57.77;99319.39;1692793;84;21303;-76
2021/03/21 17:37:58;;;;;;;17.37;8.40;;;;;;;1.79;57.63;99328.03;1678420;84;21152;-84
2021/03/21 17:40:31;;;;;;;17.50;8.80;;;;;;;1.77;57.56;99329.28;1685936;84;21177;-78
2021/03/21 17:43:00;;;;;;;19.50;8.80;;;;;;;1.77;57.47;99329.28;1680424;83;21176;-87
2021/03/21 17:45:36;;;;;;;15.38;8.80;;;;;;;1.75;58.13;99340.27;1684012;84;21596;-89
2021/03/21 17:48:06;;;;;;;16.50;8.07;;;;;;;1.75;58.13;99340.78;1679618;83;21615;-86
2021/03/21 17:50:39;;;;;;;18.27;8.73;;;;;;;1.74;58.01;99337.28;1692264;84;21269;-86
2021/03/21 17:53:08;;;;;;;17.07;8.27;;;;;;;1.74;58.51;99341.33;1688540;83;21157;-86
2021/03/21 17:55:36;;;;;;;16.17;9.17;;;;;;;1.75;57.57;99342.13;1685609;84;21265;-79
2021/03/21 17:58:04;;;;;;;24.57;9.15;;;;;;;1.73;58.25;99337.48;1693096;84;21285;-82
2021/03/21 18:00:32;;;;;;;17.95;9.70;;;;;;;1.73;58.58;99334.78;1688506;82;21560;-86
2021/03/21 18:03:00;;;;;;;17.52;8.98;;;;;;;1.72;58.28;99340.69;1680993;83;21212;-81
2021/03/21 18:05:34;;;;;;;18.87;10.27;;;;;;;1.72;58.80;99339.34;1702628;83;21934;-79
2021/03/21 18:08:03;;;;;;;17.50;9.43;;;;;;;1.71;58.20;99341.75;1690169;84;21200;-79
2021/03/21 18:10:33;;;;;;;18.63;9.03;;;;;;;1.69;58.11;99340.31;1683338;83;21751;-78
2021/03/21 18:13:01;;;;;;;19.82;10.00;;;;;;;1.68;58.25;99342.17;1693188;83;21699;-84
2021/03/21 18:15:30;;;;;;;19.03;9.30;;;;;;;1.68;58.73;99330.55;1680523;84;21793;-81
2021/03/21 18:18:02;;;;;;;17.60;9.20;;;;;;;1.68;58.38;99337.29;1703986;83;21149;-75
2021/03/21 18:20:35;;;;;;;21.20;9.47;;;;;;;1.65;57.94;99333.67;1674223;83;21324;-83
2021/03/21 18:23:16;;;;;;;19.97;9.77;;;;;;;1.64;58.23;99334.22;1688100;83;21628;-75
2021/03/21 18:25:46;;;;;;;20.27;10.73;;;;;;;1.63;57.98;99340.64;1688252;84;21168;-74
2021/03/21 18:28:15;;;;;;;19.32;9.53;;;;;;;1.62;58.34;99337.62;1708611;82;21636;-84
2021/03/21 18:30:43;;;;;;;18.17;9.67;;;;;;;1.62;58.48;99338.97;1695408;82;21193;-74
2021/03/21 18:33:29;;;;;;;19.37;10.18;;;;;;;1.63;58.35;99334.41;1709868;81;21635;-73
2021/03/21 18:35:57;;;;;;;16.97;9.37;;;;;;;1.62;57.89;99340.86;1689305;84;21860;-75
2021/03/21 18:38:25;;;;;;;15.97;8.70;;;;;;;1.59;58.02;99338.07;1681487;83;21169;-81
2021/03/21 18:40:55;;;;;;;14.63;8.27;;;;;;;1.59;58.37;99338.07;1682719;84;21724;-73
2021/03/21 18:43:23;;;;;;;16.52;8.38;;;;;;;1.58;57.94;99339.10;1681860;84;21156;-75
2021/03/21 18:45:52;;;;;;;16.80;8.38;;;;;;;1.56;58.24;99337.14;1694093;84;21277;-76
2021/03/21 18:48:21;;;;;;;16.00;8.00;;;;;;;1.54;58.08;99336.53;1653105;84;21295;-79
2021/03/21 18:56:26;;;;;;;19.40;8.53;;;;;;;1.56;58.87;99320.96;1804538;77;22645;-81
2021/03/21 18:58:56;;;;;;;18.53;8.43;;;;;;;1.52;59.44;99321.61;1755160;80;21156;-78
2021/03/21 19:01:27;;;;;;;17.13;8.50;;;;;;;1.51;58.65;99318.59;1659070;84;21320;-81
2021/03/21 19:03:55;;;;;;;15.75;8.58;;;;;;;1.50;58.45;99322.31;1724115;82;21129;-79
2021/03/21 19:06:30;;;;;;;21.42;9.68;;;;;;;1.51;58.60;99317.24;1708974;82;21178;-78
2021/03/21 19:08:58;;;;;;;17.57;8.40;;;;;;;1.50;58.90;99315.06;1710635;81;21164;-78
2021/03/21 19:11:28;;;;;;;17.40;9.03;;;;;;;1.51;58.82;99317.24;1683209;84;21205;-73
2021/03/21 19:13:56;;;;;;;16.25;8.48;;;;;;;1.51;58.85;99314.03;1692867;82;21278;-75
2021/03/21 19:16:24;;;;;;;16.45;8.68;;;;;;;1.50;58.88;99312.36;1720259;82;21177;-79
2021/03/21 19:18:52;;;;;;;16.35;8.23;;;;;;;1.51;58.55;99314.03;1704009;84;21296;-86
2021/03/21 19:21:24;;;;;;;;;;;;;;;1.51;58.50;99319.42;1692927;84;21192;-82
2021/03/21 19:23:52;;;;;;;13.47;7.47;;;;;;;1.51;58.53;99316.73;1693602;84;20324;-80
2021/03/21 19:26:19;;;;;;;17.55;8.45;;;;;;;1.48;58.53;99311.75;1690801;84;21224;-82
2021/03/21 19:28:50;;;;;;;16.70;7.73;;;;;;;1.48;58.83;99317.66;1691640;84;21168;-84
2021/03/21 19:31:18;;;;;;;16.45;8.00;;;;;;;1.48;59.03;99313.62;1692150;84;21215;-76
2021/03/21 19:33:46;;;;;;;15.90;7.67;;;;;;;1.47;58.56;99312.78;1691965;84;22116;-73
2021/03/21 19:36:14;;;;;;;15.03;8.18;;;;;;;1.47;58.10;99316.03;1691104;84;21303;-76
2021/03/21 19:38:42;;;;;;;16.10;7.85;;;;;;;1.45;58.23;99312.17;1690443;84;21155;-76
2021/03/21 19:41:10;;;;;;;15.60;8.70;;;;;;;1.45;58.84;99308.13;1689395;84;21175;-76
2021/03/21 19:43:38;;;;;;;15.32;8.65;;;;;;;1.46;59.13;99307.62;1696852;84;21174;-77
2021/03/21 19:46:07;;;;;;;15.70;8.75;;;;;;;1.46;58.80;99307.10;1666036;84;21177;-77
2021/03/21 19:48:36;;;;;;;15.37;7.80;;;;;;;1.45;58.77;99301.39;1690582;84;21132;-80
2021/03/21 19:51:06;;;;;;;15.45;8.08;;;;;;;1.46;58.78;99309.80;1681719;83;21640;-80
2021/03/21 19:53:34;;;;;;;16.30;8.53;;;;;;;1.45;58.49;99309.99;1699179;83;21228;-78
2021/03/21 19:56:04;;;;;;;14.60;7.77;;;;;;;1.45;59.00;99303.25;1673440;84;21615;-83
2021/03/21 19:58:36;;;;;;;18.70;9.73;;;;;;;1.45;59.04;99306.78;1686995;82;21144;-81
2021/03/21 20:01:05;;;;;;;18.20;9.10;;;;;;;1.46;59.40;99312.50;1662558;85;21284;-80
2021/03/21 20:03:33;;;;;;;;;;;;;;;1.45;59.16;99314.87;1708348;82;21165;-75
2021/03/21 20:06:01;;;;;;;16.05;8.15;;;;;;;1.45;59.25;99309.48;1684333;84;20225;-86
2021/03/21 20:08:29;;;;;;;15.00;7.47;;;;;;;1.46;59.10;99310.31;1702565;84;21412;-84
2021/03/21 20:10:57;;;;;;;14.93;7.58;;;;;;;1.44;58.85;99313.23;1692651;83;21207;-85
2021/03/21 20:13:25;;;;;;;17.95;8.05;;;;;;;1.42;58.51;99312.59;1702550;83;21168;-78
2021/03/21 20:15:54;;;;;;;14.80;8.10;;;;;;;1.43;58.89;99311.56;1706181;84;21171;-83
2021/03/21 20:18:22;;;;;;;14.83;8.10;;;;;;;1.43;59.89;99309.38;1680401;84;21211;-82
2021/03/21 20:20:55;;;;;;;13.10;7.00;;;;;;;1.43;59.81;99309.38;1706847;84;21210;-81
2021/03/21 20:23:26;;;;;;;19.23;7.53;;;;;;;1.41;59.28;99315.00;1698784;82;21608;-77
2021/03/21 20:25:56;;;;;;;14.90;7.33;;;;;;;1.42;59.24;99325.27;1684521;84;21179;-81
2021/03/21 20:28:31;;;;;;;14.80;7.17;;;;;;;1.42;59.49;99316.64;1713112;82;21183;-82
2021/03/21 20:30:59;;;;;;;14.17;7.60;;;;;;;1.43;58.89;99312.08;1676872;82;21254;-80
2021/03/21 20:33:30;;;;;;;17.00;8.70;;;;;;;1.43;59.57;99311.56;1655486;83;21187;-73
2021/03/21 20:36:00;;;;;;;27.23;10.30;;;;;;;1.44;59.50;99315.09;1696957;83;21139;-78
2021/03/21 20:38:28;;;;;;;18.27;9.00;;;;;;;1.43;59.01;99316.13;1718402;82;21168;-81
2021/03/21 20:40:56;;;;;;;17.07;8.50;;;;;;;1.42;58.90;99311.80;1728922;82;21140;-81
2021/03/21 20:43:31;;;;;;;19.65;9.38;;;;;;;1.43;59.72;99312.91;1705415;82;21873;-82
2021/03/21 20:46:01;;;;;;;17.63;8.90;;;;;;;1.43;59.89;99312.08;1719587;82;21817;-79
2021/03/21 20:48:29;;;;;;;26.13;9.47;;;;;;;1.43;60.43;99314.27;1714942;82;21669;-80
2021/03/21 20:50:58;;;;;;;23.38;10.08;;;;;;;1.42;59.42;99309.90;1718585;82;21111;-74
2021/03/21 20:53:26;;;;;;;21.67;9.63;;;;;;;1.41;59.07;99310.13;1721915;82;21201;-75
2021/03/21 20:55:57;;;;;;;24.40;10.00;;;;;;;1.40;59.43;99301.72;1687208;84;21165;-82
2021/03/21 20:58:26;;;;;;;24.30;10.47;;;;;;;1.40;59.56;99305.25;1715915;82;21171;-84
2021/03/21 21:00:54;;;;;;;22.87;10.33;;;;;;;1.40;59.84;99298.51;1712376;82;21210;-82
2021/03/21 21:03:25;;;;;;;25.97;11.03;;;;;;;1.40;59.89;99299.85;1723411;83;21572;-84
2021/03/21 21:05:58;;;;;;;21.30;9.60;;;;;;;1.42;59.93;99303.70;1691525;83;21192;-73
2021/03/21 21:08:26;;;;;;;16.27;8.70;;;;;;;1.42;60.12;99304.51;1704548;83;21202;-73
2021/03/21 21:10:58;;;;;;;19.13;9.20;;;;;;;1.43;60.50;99312.08;1676727;84;21188;-75
2021/03/21 21:13:29;;;;;;;19.33;9.97;;;;;;;1.41;59.44;99305.56;1704692;83;21787;-76
2021/03/21 21:15:59;;;;;;;16.50;9.43;;;;;;;1.42;59.80;99308.55;1704571;84;21192;-76
2021/03/21 21:18:30;;;;;;;17.23;8.73;;;;;;;1.42;59.96;99305.86;1697411;83;21180;-73
2021/03/21 21:21:00;;;;;;;19.07;9.13;;;;;;;1.42;60.54;99307.20;1697493;84;21242;-74
2021/03/21 21:23:32;;;;;;;18.20;9.17;;;;;;;1.41;60.21;99302.88;1695053;83;21148;-74
2021/03/21 21:26:00;;;;;;;19.87;8.83;;;;;;;1.41;60.11;99304.73;1688913;83;21278;-74
2021/03/21 21:28:39;;;;;;;15.90;8.20;;;;;;;1.41;60.42;99307.43;1699740;82;21580;-84
2021/03/21 21:31:11;;;;;;;18.43;9.53;;;;;;;1.40;60.08;99302.55;1697904;84;21216;-73
2021/03/21 21:33:41;;;;;;;20.53;9.27;;;;;;;1.39;60.66;99303.61;1700483;83;21645;-76
2021/03/21 21:36:09;;;;;;;18.63;8.67;;;;;;;1.38;59.87;99303.29;1705943;83;21278;-76
2021/03/21 21:38:37;;;;;;;16.42;8.10;;;;;;;1.38;60.22;99308.69;1674217;84;21152;-72
2021/03/21 21:41:05;;;;;;;16.25;8.25;;;;;;;1.38;60.10;99306.50;1701075;84;21301;-73
2021/03/21 21:43:40;;;;;;;15.07;7.53;;;;;;;1.36;60.03;99304.03;1699688;83;21640;-81
2021/03/21 21:46:13;;;;;;;15.13;7.30;;;;;;;1.35;60.15;99305.05;1708424;84;21204;-73
2021/03/21 21:48:42;;;;;;;13.53;7.50;;;;;;;1.34;60.28;99307.47;1698699;84;21165;-81
2021/03/21 21:51:11;;;;;;;18.57;8.45;;;;;;;1.34;60.50;99302.07;1706076;84;21208;-84
2021/03/21 21:53:44;;;;;;;17.40;8.30;;;;;;;1.32;60.67;99304.12;1704839;84;21236;-76
2021/03/21 21:56:11;;;;;;;15.53;8.03;;;;;;;1.33;60.56;99310.35;1671795;84;21592;-73
2021/03/21 21:58:41;;;;;;;15.93;7.67;;;;;;;1.31;60.07;99301.14;1683276;82;21183;-83
2021/03/21 22:01:09;;;;;;;20.32;8.60;;;;;;;1.30;60.21;99306.22;1689226;84;21220;-84
2021/03/21 22:03:38;;;;;;;13.17;7.57;;;;;;;1.29;60.50;99305.92;1683700;84;21165;-83
2021/03/21 22:06:06;;;;;;;14.55;7.62;;;;;;;1.29;60.77;99309.97;1699844;83;21197;-84
2021/03/21 22:08:35;;;;;;;14.40;7.87;;;;;;;1.28;60.38;99304.26;1698608;84;21304;-75
2021/03/21 22:11:04;;;;;;;16.43;8.60;;;;;;;1.28;60.59;99305.60;1692817;83;21279;-81
2021/03/21 22:13:36;;;;;;;15.50;8.07;;;;;;;1.27;61.04;99306.63;1690255;83;21137;-82
2021/03/21 22:16:05;;;;;;;14.15;7.47;;;;;;;1.24;60.59;99304.35;1700436;84;21162;-83
2021/03/21 22:18:33;;;;;;;14.37;7.20;;;;;;;1.23;60.84;99302.72;1694962;83;21725;-82
2021/03/21 22:21:01;;;;;;;14.05;7.60;;;;;;;1.21;60.97;99306.95;1697259;84;21168;-83
2021/03/21 22:23:33;;;;;;;14.50;7.42;;;;;;;1.22;60.76;99305.92;1700644;84;21699;-84
2021/03/21 22:26:02;;;;;;;13.27;7.47;;;;;;;1.21;60.64;99306.95;1701900;84;21156;-83
2021/03/21 22:28:33;;;;;;;12.10;6.30;;;;;;;1.21;60.39;99312.89;1716631;83;21553;-81
2021/03/21 22:31:12;;;;;;;13.90;6.73;;;;;;;1.21;60.92;99308.84;1691038;84;21201;-83
2021/03/21 22:33:41;;;;;;;14.40;7.03;;;;;;;1.21;60.96;99302.11;1704051;82;21165;-81
2021/03/21 22:36:09;;;;;;;14.98;6.92;;;;;;;1.21;61.09;99311.54;1718824;82;21176;-83
2021/03/21 22:38:37;;;;;;;13.78;6.65;;;;;;;1.21;61.25;99310.19;1723517;82;21610;-72
2021/03/21 22:41:05;;;;;;;13.20;6.58;;;;;;;1.20;61.50;99304.48;1714298;81;21144;-73
2021/03/21 22:43:34;;;;;;;15.53;7.33;;;;;;;1.20;61.43;99310.70;1706440;83;21167;-82
2021/03/21 22:46:03;;;;;;;16.25;7.12;;;;;;;1.19;61.65;99306.86;1708946;83;21190;-73
2021/03/21 22:48:32;;;;;;;14.07;7.20;;;;;;;1.19;61.67;99309.55;1693528;84;21653;-74
2021/03/21 22:51:01;;;;;;;15.57;7.47;;;;;;;1.18;61.57;99306.05;1699363;84;21204;-82
2021/03/21 22:53:31;;;;;;;14.73;7.67;;;;;;;1.17;61.71;99300.85;1696476;83;21463;-82
2021/03/21 22:55:58;;;;;;;13.60;7.05;;;;;;;1.17;61.73;99306.24;1698093;83;21179;-82
2021/03/21 23:02:00;;;;;;;15.53;7.20;;;;;;;1.19;62.22;99295.56;1797704;77;22159;-81
2021/03/21 23:04:29;;;;;;;17.57;8.30;;;;;;;1.13;62.77;99293.73;1746615;82;21190;-82
2021/03/21 23:06:57;;;;;;;17.77;7.30;;;;;;;1.12;62.21;99296.62;1709519;83;21165;-84
2021/03/21 23:09:31;;;;;;;14.25;6.87;;;;;;;1.10;62.68;99293.31;1715750;81;21265;-85
2021/03/21 23:11:59;;;;;;;16.63;7.60;;;;;;;1.09;62.33;99296.52;1731145;82;21148;-85
2021/03/21 23:14:30;;;;;;;15.90;8.07;;;;;;;1.09;62.63;99293.83;1715216;80;21163;-74
2021/03/21 23:16:57;;;;;;;18.10;7.87;;;;;;;1.10;62.89;99291.97;1725799;80;21149;-74
2021/03/21 23:19:27;;;;;;;16.10;8.00;;;;;;;1.09;62.42;99295.17;1738207;80;21311;-84
2021/03/21 23:21:55;;;;;;;14.63;7.37;;;;;;;1.08;62.79;99292.19;1716328;82;21691;-83
2021/03/21 23:24:23;;;;;;;13.93;7.03;;;;;;;1.08;63.56;99294.05;1713765;80;21188;-87
2021/03/21 23:26:50;;;;;;;18.73;7.87;;;;;;;1.06;63.17;99288.85;1731663;82;21140;-85
2021/03/21 23:29:18;;;;;;;15.43;7.72;;;;;;;1.06;62.83;99284.01;1725942;82;21627;-84
2021/03/21 23:31:46;;;;;;;14.20;8.30;;;;;;;1.05;62.94;99283.69;1721383;81;21170;-83
2021/03/21 23:34:14;;;;;;;21.37;10.15;;;;;;;1.05;62.83;99283.69;1715745;81;21709;-85
2021/03/21 23:36:42;;;;;;;27.20;12.70;;;;;;;1.04;63.15;99277.47;1763063;80;21640;-84
2021/03/21 23:39:11;;;;;;;;;;;;;;;1.05;63.74;99286.38;1735371;80;21133;-85
2021/03/21 23:41:38;;;;;;;43.92;16.95;;;;;;;1.03;63.84;99275.00;1746489;82;20423;-84
2021/03/21 23:44:06;;;;;;;35.80;14.90;;;;;;;1.03;63.39;99277.69;1750657;80;21161;-82
2021/03/21 23:46:34;;;;;;;25.80;12.20;;;;;;;1.02;63.71;99278.72;1748797;80;21211;-75
2021/03/21 23:49:02;;;;;;;22.95;9.58;;;;;;;1.01;63.94;99283.81;1754112;80;21661;-74